createdAt,value
2017-09-18T00:01:58.638Z,6.40
2017-09-18T00:04:26.925Z,6.40
2017-09-18T00:06:55.208Z,6.40
2017-09-18T00:09:22.755Z,6.40
2017-09-18T00:11:51.044Z,6.40
2017-09-18T00:14:18.567Z,6.30
2017-09-18T00:16:46.192Z,6.40
2017-09-18T00:19:13.726Z,6.30
2017-09-18T00:21:41.250Z,6.40
2017-09-18T00:24:08.812Z,6.40
2017-09-18T00:26:36.388Z,6.40
2017-09-18T00:29:04.700Z,6.40
2017-09-18T00:31:32.242Z,6.40
2017-09-18T00:33:59.770Z,6.50
2017-09-18T00:36:27.293Z,6.40
2017-09-18T00:38:54.834Z,6.50
2017-09-18T00:41:22.426Z,6.50
2017-09-18T00:43:49.949Z,6.60
2017-09-18T00:46:17.541Z,6.60
2017-09-18T00:48:45.115Z,6.60
2017-09-18T00:51:13.019Z,6.60
2017-09-18T00:53:41.325Z,6.60
2017-09-18T00:56:08.845Z,6.60
2017-09-18T00:58:38.058Z,6.70
2017-09-18T01:01:06.089Z,6.70
2017-09-18T01:03:33.739Z,6.70
2017-09-18T01:06:01.344Z,6.70
2017-09-18T01:08:29.822Z,6.80
2017-09-18T01:10:58.112Z,6.80
2017-09-18T01:13:25.638Z,6.80
2017-09-18T01:15:53.202Z,6.90
2017-09-18T01:18:21.500Z,7.00
2017-09-18T01:20:49.790Z,7.00
2017-09-18T01:23:17.330Z,6.90
2017-09-18T01:25:45.630Z,7.00
2017-09-18T01:28:13.150Z,7.00
2017-09-18T01:30:40.701Z,7.00
2017-09-18T01:33:09.250Z,7.00
2017-09-18T01:35:36.810Z,7.00
2017-09-18T01:38:04.365Z,7.00
2017-09-18T01:40:31.886Z,7.00
2017-09-18T01:43:00.225Z,7.00
2017-09-18T01:45:27.781Z,7.00
2017-09-18T01:47:55.305Z,7.00
2017-09-18T01:50:22.866Z,7.10
2017-09-18T01:52:50.443Z,7.10
2017-09-18T01:55:17.962Z,7.10
2017-09-18T01:57:46.249Z,7.10
2017-09-18T02:00:14.553Z,7.20
2017-09-18T02:02:42.075Z,7.10
2017-09-18T02:05:11.290Z,7.20
2017-09-18T02:07:38.872Z,7.20
2017-09-18T02:10:06.397Z,7.20
2017-09-18T02:12:34.714Z,7.20
2017-09-18T02:15:02.283Z,7.20
2017-09-18T02:17:29.804Z,7.30
2017-09-18T02:19:57.380Z,7.30
2017-09-18T02:22:24.992Z,7.30
2017-09-18T02:24:52.528Z,7.30
2017-09-18T02:27:20.046Z,7.30
2017-09-18T02:29:47.625Z,7.30
2017-09-18T02:32:15.154Z,7.20
2017-09-18T02:34:44.683Z,7.20
2017-09-18T02:37:12.294Z,7.20
2017-09-18T02:39:41.329Z,7.20
2017-09-18T02:42:09.835Z,7.20
2017-09-18T02:44:37.438Z,7.30
2017-09-18T02:47:05.113Z,7.30
2017-09-18T02:49:33.424Z,7.30
2017-09-18T02:52:01.037Z,7.20
2017-09-18T02:54:28.563Z,7.30
2017-09-18T02:56:56.109Z,7.30
2017-09-18T02:59:23.645Z,7.30
2017-09-18T03:01:51.933Z,7.30
2017-09-18T03:04:19.462Z,7.30
2017-09-18T03:06:47.865Z,7.30
2017-09-18T03:09:15.426Z,7.30
2017-09-18T03:11:43.005Z,7.30
2017-09-18T03:14:10.551Z,7.40
2017-09-18T03:16:38.073Z,7.40
2017-09-18T03:19:05.594Z,7.40
2017-09-18T03:21:33.150Z,7.40
2017-09-18T03:24:01.336Z,7.40
2017-09-18T03:26:28.978Z,7.50
2017-09-18T03:28:56.586Z,7.50
2017-09-18T03:31:24.136Z,7.50
2017-09-18T03:33:52.610Z,7.60
2017-09-18T03:36:20.154Z,7.60
2017-09-18T03:38:47.706Z,7.60
2017-09-18T03:41:16.153Z,7.60
2017-09-18T03:43:44.458Z,7.60
2017-09-18T03:46:12.490Z,7.60
2017-09-18T03:48:41.113Z,7.70
2017-09-18T03:51:08.658Z,7.70
2017-09-18T03:53:36.217Z,7.70
2017-09-18T03:56:03.791Z,7.80
2017-09-18T03:58:31.455Z,7.80
2017-09-18T04:00:58.981Z,7.80
2017-09-18T04:03:27.267Z,7.90
2017-09-18T04:05:55.633Z,7.90
2017-09-18T04:08:23.917Z,7.90
2017-09-18T04:10:52.209Z,8.00
2017-09-18T04:13:19.789Z,7.90
2017-09-18T04:15:48.149Z,7.90
2017-09-18T04:18:15.720Z,7.90
2017-09-18T04:20:44.020Z,7.90
2017-09-18T04:23:12.064Z,7.90
2017-09-18T04:25:39.668Z,7.90
2017-09-18T04:28:07.211Z,7.90
2017-09-18T04:30:34.806Z,7.90
2017-09-18T04:33:02.360Z,7.80
2017-09-18T04:35:29.902Z,7.90
2017-09-18T04:37:57.454Z,7.90
2017-09-18T04:40:24.978Z,7.90
2017-09-18T04:42:52.577Z,7.90
2017-09-18T04:45:20.095Z,7.90
2017-09-18T04:47:48.977Z,7.90
2017-09-18T04:50:18.218Z,7.90
2017-09-18T04:52:45.782Z,7.90
2017-09-18T04:55:13.350Z,7.90
2017-09-18T04:57:40.895Z,7.90
2017-09-18T05:00:08.442Z,7.90
2017-09-18T05:02:35.969Z,7.90
2017-09-18T05:05:04.282Z,7.90
2017-09-18T05:07:31.841Z,7.80
2017-09-18T05:09:59.433Z,7.90
2017-09-18T05:12:27.005Z,7.90
2017-09-18T05:14:54.908Z,7.90
2017-09-18T05:17:22.483Z,7.90
2017-09-18T05:19:50.060Z,8.00
2017-09-18T05:22:17.696Z,8.00
2017-09-18T05:24:45.370Z,8.00
2017-09-18T05:27:12.919Z,8.00
2017-09-18T05:29:40.510Z,8.00
2017-09-18T05:32:08.666Z,8.00
2017-09-18T05:34:36.205Z,8.10
2017-09-18T05:37:03.734Z,8.10
2017-09-18T05:39:32.060Z,8.10
2017-09-18T05:41:59.605Z,8.10
2017-09-18T05:44:27.130Z,8.10
2017-09-18T05:46:54.718Z,8.10
2017-09-18T05:49:22.258Z,8.20
2017-09-18T05:51:50.854Z,8.20
2017-09-18T05:54:20.107Z,8.20
2017-09-18T05:56:47.653Z,8.20
2017-09-18T05:59:15.937Z,8.30
2017-09-18T06:01:43.461Z,8.30
2017-09-18T06:04:11.022Z,8.30
2017-09-18T06:06:38.637Z,8.30
2017-09-18T06:09:06.965Z,8.50
2017-09-18T06:11:34.537Z,8.40
2017-09-18T06:14:02.065Z,8.50
2017-09-18T06:16:30.361Z,8.50
2017-09-18T06:18:57.901Z,8.50
2017-09-18T06:21:26.253Z,8.60
2017-09-18T06:23:53.776Z,8.60
2017-09-18T06:26:21.335Z,8.70
2017-09-18T06:28:48.937Z,8.80
2017-09-18T06:31:17.223Z,8.90
2017-09-18T06:33:45.551Z,8.90
2017-09-18T06:36:13.110Z,8.90
2017-09-18T06:38:40.658Z,8.90
2017-09-18T06:41:08.201Z,8.90
2017-09-18T06:43:35.726Z,8.80
2017-09-18T06:46:03.339Z,8.90
2017-09-18T06:48:30.902Z,8.90
2017-09-18T06:50:58.426Z,9.00
2017-09-18T06:53:26.722Z,9.20
2017-09-18T06:55:54.348Z,9.10
2017-09-18T06:58:22.862Z,9.50
2017-09-18T07:00:50.914Z,9.50
2017-09-18T07:03:19.234Z,9.90
2017-09-18T07:05:46.830Z,9.90
2017-09-18T07:08:14.350Z,10.00
2017-09-18T07:10:41.905Z,10.10
2017-09-18T07:13:09.445Z,10.20
2017-09-18T07:15:36.981Z,10.30
2017-09-18T07:18:05.268Z,10.40
2017-09-18T07:20:33.585Z,10.70
2017-09-18T07:23:01.143Z,10.60
2017-09-18T07:25:28.686Z,10.90
2017-09-18T07:27:56.217Z,11.20
2017-09-18T07:30:23.743Z,11.30
2017-09-18T07:32:51.386Z,11.40
2017-09-18T07:35:18.969Z,11.60
2017-09-18T07:37:46.502Z,11.80
2017-09-18T07:40:14.038Z,12.00
2017-09-18T07:42:42.364Z,12.30
2017-09-18T07:45:09.890Z,12.30
2017-09-18T07:47:37.426Z,12.50
2017-09-18T07:50:05.718Z,12.60
2017-09-18T07:52:33.304Z,12.60
2017-09-18T07:55:00.862Z,12.60
2017-09-18T07:57:28.385Z,12.70
2017-09-18T07:59:56.705Z,12.70
2017-09-18T08:02:24.245Z,12.70
2017-09-18T08:04:51.761Z,12.70
2017-09-18T08:07:19.325Z,12.70
2017-09-18T08:09:47.661Z,12.50
2017-09-18T08:12:15.209Z,12.40
2017-09-18T08:14:42.781Z,12.50
2017-09-18T08:17:11.589Z,12.60
2017-09-18T08:19:39.115Z,12.90
2017-09-18T08:22:06.642Z,13.10
2017-09-18T08:24:34.957Z,13.00
2017-09-18T08:27:02.477Z,13.00
2017-09-18T08:29:30.769Z,13.00
2017-09-18T08:31:58.309Z,13.00
2017-09-18T08:34:26.613Z,13.20
2017-09-18T08:36:55.830Z,13.30
2017-09-18T08:39:23.375Z,13.30
2017-09-18T08:41:50.944Z,13.60
2017-09-18T08:44:18.505Z,13.80
2017-09-18T08:46:46.063Z,14.20
2017-09-18T08:49:13.594Z,14.40
2017-09-18T08:51:41.877Z,14.60
2017-09-18T08:54:09.422Z,14.60
2017-09-18T08:56:38.374Z,14.70
2017-09-18T08:59:05.902Z,14.70
2017-09-18T09:01:33.486Z,14.80
2017-09-18T09:04:01.006Z,14.80
2017-09-18T09:06:28.533Z,14.80
2017-09-18T09:08:56.193Z,14.60
2017-09-18T09:11:24.529Z,14.60
2017-09-18T09:13:52.099Z,14.50
2017-09-18T09:16:19.637Z,14.60
2017-09-18T09:18:47.181Z,14.90
2017-09-18T09:21:15.487Z,14.80
2017-09-18T09:23:43.021Z,14.70
2017-09-18T09:26:11.307Z,15.20
2017-09-18T09:28:38.832Z,15.20
2017-09-18T09:31:06.373Z,15.60
2017-09-18T09:33:33.899Z,15.70
2017-09-18T09:36:01.425Z,15.90
2017-09-18T09:38:29.732Z,16.70
2017-09-18T09:40:57.293Z,16.60
2017-09-18T09:43:24.819Z,17.10
2017-09-18T09:45:53.232Z,17.10
2017-09-18T09:48:20.754Z,17.10
2017-09-18T09:50:49.040Z,16.50
2017-09-18T09:53:17.342Z,15.90
2017-09-18T09:55:44.864Z,15.90
2017-09-18T09:58:13.153Z,15.70
2017-09-18T10:00:41.461Z,16.00
2017-09-18T10:03:09.030Z,16.00
2017-09-18T10:05:36.562Z,16.10
2017-09-18T10:08:04.151Z,16.50
2017-09-18T10:10:31.684Z,16.70
2017-09-18T10:12:59.206Z,16.80
2017-09-18T10:15:26.837Z,16.70
2017-09-18T10:17:54.355Z,16.90
2017-09-18T10:20:21.938Z,17.30
2017-09-18T10:22:49.481Z,17.90
2017-09-18T10:25:17.129Z,18.10
2017-09-18T10:27:45.423Z,17.20
2017-09-18T10:30:12.995Z,17.20
2017-09-18T10:32:40.517Z,16.80
2017-09-18T10:35:08.809Z,16.20
2017-09-18T10:37:37.111Z,15.80
2017-09-18T10:40:05.400Z,15.60
2017-09-18T10:42:32.920Z,15.60
2017-09-18T10:45:01.330Z,15.30
2017-09-18T10:47:30.189Z,15.30
2017-09-18T10:49:59.428Z,15.50
2017-09-18T10:52:26.970Z,15.50
2017-09-18T10:54:54.538Z,15.70
2017-09-18T10:57:22.062Z,15.90
2017-09-18T10:59:50.474Z,17.10
2017-09-18T11:02:17.998Z,17.10
2017-09-18T11:04:46.314Z,19.80
2017-09-18T11:07:13.854Z,19.80
2017-09-18T11:09:41.389Z,19.50
2017-09-18T11:12:09.714Z,18.90
2017-09-18T11:14:37.249Z,18.80
2017-09-18T11:17:04.766Z,19.00
2017-09-18T11:19:32.282Z,19.50
2017-09-18T11:22:00.589Z,19.00
2017-09-18T11:24:28.107Z,19.80
2017-09-18T11:26:55.681Z,22.40
2017-09-18T11:29:23.217Z,23.80
2017-09-18T11:31:50.798Z,25.10
2017-09-18T11:34:18.323Z,25.30
2017-09-18T11:36:46.636Z,23.10
2017-09-18T11:39:14.646Z,23.10
2017-09-18T11:41:42.168Z,21.80
2017-09-18T11:44:09.704Z,20.60
2017-09-18T11:46:37.388Z,19.60
2017-09-18T11:49:05.594Z,19.00
2017-09-18T11:51:34.650Z,19.10
2017-09-18T11:54:02.177Z,19.10
2017-09-18T11:56:30.466Z,18.70
2017-09-18T11:58:58.057Z,18.70
2017-09-18T12:01:25.578Z,17.70
2017-09-18T12:03:53.888Z,16.30
2017-09-18T12:06:21.426Z,16.20
2017-09-18T12:08:49.028Z,15.70
2017-09-18T12:11:16.574Z,15.20
2017-09-18T12:13:44.113Z,14.80
2017-09-18T12:16:11.640Z,14.30
2017-09-18T12:18:39.161Z,14.00
2017-09-18T12:21:06.697Z,13.60
2017-09-18T12:23:34.217Z,13.40
2017-09-18T12:26:03.441Z,13.10
2017-09-18T12:28:30.976Z,13.10
2017-09-18T12:30:58.625Z,13.10
2017-09-18T12:33:26.265Z,13.10
2017-09-18T12:35:53.845Z,13.20
2017-09-18T12:38:21.367Z,13.30
2017-09-18T12:40:49.136Z,13.60
2017-09-18T12:43:16.719Z,14.00
2017-09-18T12:45:44.360Z,14.50
2017-09-18T12:48:11.915Z,15.40
2017-09-18T12:50:39.477Z,15.80
2017-09-18T12:53:07.010Z,16.70
2017-09-18T12:55:34.539Z,17.20
2017-09-18T12:58:04.614Z,18.40
2017-09-18T13:00:32.274Z,18.40
2017-09-18T13:02:59.810Z,18.60
2017-09-18T13:05:27.352Z,19.20
2017-09-18T13:07:54.917Z,19.60
2017-09-18T13:10:23.210Z,20.30
2017-09-18T13:12:50.850Z,20.20
2017-09-18T13:15:19.178Z,22.40
2017-09-18T13:17:46.730Z,22.30
2017-09-18T13:20:14.266Z,22.80
2017-09-18T13:22:41.796Z,23.50
2017-09-18T13:25:10.094Z,24.30
2017-09-18T13:27:38.517Z,23.50
2017-09-18T13:30:06.071Z,23.50
2017-09-18T13:32:33.693Z,22.00
2017-09-18T13:35:02.038Z,24.30
2017-09-18T13:37:29.557Z,24.30
2017-09-18T13:39:57.077Z,26.10
2017-09-18T13:42:25.382Z,26.70
2017-09-18T13:44:52.909Z,26.60
2017-09-18T13:47:21.197Z,26.30
2017-09-18T13:49:49.505Z,27.80
2017-09-18T13:52:17.039Z,27.90
2017-09-18T13:54:44.637Z,28.50
2017-09-18T13:57:12.190Z,28.00
2017-09-18T13:59:39.767Z,28.50
2017-09-18T14:02:07.308Z,30.40
2017-09-18T14:04:34.867Z,28.50
2017-09-18T14:07:03.162Z,28.60
2017-09-18T14:09:30.678Z,28.60
2017-09-18T14:11:58.235Z,28.80
2017-09-18T14:14:26.572Z,30.00
2017-09-18T14:16:54.248Z,30.00
2017-09-18T14:19:23.310Z,29.10
2017-09-18T14:21:50.862Z,29.10
2017-09-18T14:24:18.386Z,29.80
2017-09-18T14:26:46.698Z,30.40
2017-09-18T14:29:14.900Z,30.40
2017-09-18T14:31:42.538Z,30.60
2017-09-18T14:34:10.078Z,31.80
2017-09-18T14:36:37.605Z,31.20
2017-09-18T14:39:05.901Z,32.10
2017-09-18T14:41:33.442Z,32.00
2017-09-18T14:44:01.769Z,30.90
2017-09-18T14:46:29.337Z,30.90
2017-09-18T14:48:56.879Z,30.80
2017-09-18T14:51:24.397Z,30.00
2017-09-18T14:53:52.689Z,28.70
2017-09-18T14:56:20.251Z,28.70
2017-09-18T14:58:47.774Z,28.60
2017-09-18T15:01:15.384Z,27.00
2017-09-18T15:03:42.932Z,26.80
2017-09-18T15:06:10.461Z,24.70
2017-09-18T15:08:38.424Z,23.30
2017-09-18T15:11:05.556Z,21.30
2017-09-18T15:13:33.076Z,20.50
2017-09-18T15:16:00.602Z,19.70
2017-09-18T15:18:28.150Z,19.00
2017-09-18T15:20:55.674Z,18.30
2017-09-18T15:23:23.234Z,17.80
2017-09-18T15:25:50.774Z,17.30
2017-09-18T15:28:18.302Z,17.30
2017-09-18T15:30:45.826Z,17.30
2017-09-18T15:33:13.366Z,16.80
2017-09-18T15:35:40.891Z,16.60
2017-09-18T15:38:10.109Z,16.80
2017-09-18T15:40:37.653Z,16.80
2017-09-18T15:43:05.938Z,17.00
2017-09-18T15:45:33.593Z,16.90
2017-09-18T15:48:02.001Z,17.10
2017-09-18T15:50:29.563Z,17.10
2017-09-18T15:52:57.089Z,17.10
2017-09-18T15:55:25.390Z,16.80
2017-09-18T15:57:52.959Z,16.80
2017-09-18T16:00:20.514Z,16.70
2017-09-18T16:02:48.095Z,16.40
2017-09-18T16:05:15.613Z,16.20
2017-09-18T16:07:43.141Z,15.90
2017-09-18T16:10:11.280Z,15.80
2017-09-18T16:12:38.801Z,15.80
2017-09-18T16:15:07.110Z,16.20
2017-09-18T16:17:34.668Z,16.20
2017-09-18T16:20:02.191Z,16.30
2017-09-18T16:22:30.506Z,16.20
2017-09-18T16:24:58.046Z,16.20
2017-09-18T16:27:25.570Z,16.30
2017-09-18T16:29:53.867Z,15.80
2017-09-18T16:32:22.173Z,15.40
2017-09-18T16:34:49.697Z,15.40
2017-09-18T16:37:17.994Z,14.60
2017-09-18T16:39:45.533Z,14.60
2017-09-18T16:42:13.844Z,14.20
2017-09-18T16:44:41.365Z,14.20
2017-09-18T16:47:09.680Z,13.80
2017-09-18T16:49:37.205Z,13.80
2017-09-18T16:52:05.501Z,13.50
2017-09-18T16:54:33.042Z,13.40
2017-09-18T16:57:01.335Z,13.20
2017-09-18T16:59:28.857Z,13.10
2017-09-18T17:01:56.391Z,13.00
2017-09-18T17:04:23.920Z,12.90
2017-09-18T17:06:51.444Z,12.70
2017-09-18T17:09:19.751Z,12.30
2017-09-18T17:11:47.278Z,12.30
2017-09-18T17:14:15.574Z,12.10
2017-09-18T17:16:44.906Z,12.00
2017-09-18T17:19:12.429Z,12.00
2017-09-18T17:21:40.714Z,11.70
2017-09-18T17:24:09.022Z,11.60
2017-09-18T17:26:36.538Z,11.50
2017-09-18T17:29:04.826Z,11.20
2017-09-18T17:31:33.134Z,11.10
2017-09-18T17:34:00.722Z,11.10
2017-09-18T17:36:28.278Z,11.00
2017-09-18T17:38:55.909Z,10.90
2017-09-18T17:41:23.434Z,10.90
2017-09-18T17:43:51.722Z,10.70
2017-09-18T17:46:19.311Z,10.70
2017-09-18T17:48:46.838Z,10.60
2017-09-18T17:51:16.037Z,10.40
2017-09-18T17:53:44.441Z,10.30
2017-09-18T17:56:11.961Z,10.30
2017-09-18T17:58:40.253Z,10.10
2017-09-18T18:01:08.671Z,10.10
2017-09-18T18:03:36.211Z,10.10
2017-09-18T18:06:03.733Z,10.00
2017-09-18T18:08:31.277Z,10.00
2017-09-18T18:10:58.802Z,10.00
2017-09-18T18:13:26.362Z,9.90
2017-09-18T18:15:53.954Z,9.90
2017-09-18T18:18:21.471Z,9.80
2017-09-18T18:20:49.038Z,9.70
2017-09-18T18:23:17.027Z,9.70
2017-09-18T18:25:44.598Z,9.60
2017-09-18T18:28:12.226Z,9.60
2017-09-18T18:30:39.770Z,9.50
2017-09-18T18:33:07.604Z,9.50
2017-09-18T18:35:36.150Z,9.40
2017-09-18T18:38:03.706Z,9.40
2017-09-18T18:40:31.255Z,9.30
2017-09-18T18:42:58.778Z,9.20
2017-09-18T18:45:27.098Z,9.20
2017-09-18T18:47:54.636Z,9.20
2017-09-18T18:50:22.161Z,9.10
2017-09-18T18:52:49.721Z,9.10
2017-09-18T18:55:17.254Z,9.00
2017-09-18T18:57:44.782Z,8.90
2017-09-18T19:00:12.333Z,8.90
2017-09-18T19:02:39.879Z,8.80
2017-09-18T19:05:08.934Z,8.80
2017-09-18T19:07:36.485Z,8.70
2017-09-18T19:10:04.021Z,8.70
2017-09-18T19:12:31.540Z,8.60
2017-09-18T19:14:59.860Z,8.40
2017-09-18T19:17:27.415Z,8.40
2017-09-18T19:19:54.941Z,8.40
2017-09-18T19:22:23.872Z,8.40
2017-09-18T19:24:51.410Z,8.40
2017-09-18T19:27:20.805Z,8.40
2017-09-18T19:29:48.358Z,8.30
2017-09-18T19:32:16.672Z,8.20
2017-09-18T19:34:44.427Z,8.20
2017-09-18T19:37:12.046Z,8.20
2017-09-18T19:39:41.112Z,8.10
2017-09-18T19:42:08.770Z,8.10
2017-09-18T19:44:36.338Z,8.00
2017-09-18T19:47:03.884Z,8.00
2017-09-18T19:49:31.446Z,8.00
2017-09-18T19:51:59.040Z,8.00
2017-09-18T19:54:26.576Z,7.90
2017-09-18T19:56:54.109Z,7.90
2017-09-18T19:59:21.686Z,7.90
2017-09-18T20:01:49.252Z,7.90
2017-09-18T20:04:16.784Z,7.90
2017-09-18T20:06:44.344Z,7.80
2017-09-18T20:09:11.869Z,7.80
2017-09-18T20:11:40.174Z,7.70
2017-09-18T20:14:07.724Z,7.70
2017-09-18T20:16:35.287Z,7.70
2017-09-18T20:19:02.889Z,7.70
2017-09-18T20:21:30.439Z,7.70
2017-09-18T20:23:57.957Z,7.70
2017-09-18T20:26:25.477Z,7.60
2017-09-18T20:28:53.803Z,7.50
2017-09-18T20:31:21.413Z,7.50
2017-09-18T20:33:48.952Z,7.50
2017-09-18T20:36:16.502Z,7.40
2017-09-18T20:38:44.030Z,7.30
2017-09-18T20:41:11.570Z,7.30
2017-09-18T20:43:39.882Z,7.20
2017-09-18T20:46:07.526Z,7.20
2017-09-18T20:48:35.818Z,7.10
2017-09-18T20:51:03.366Z,7.10
2017-09-18T20:53:31.053Z,7.00
2017-09-18T20:55:58.582Z,7.00
2017-09-18T20:58:26.882Z,6.90
2017-09-18T21:00:54.474Z,6.80
2017-09-18T21:03:22.057Z,6.80
2017-09-18T21:05:49.875Z,6.80
2017-09-18T21:08:17.413Z,6.70
2017-09-18T21:10:44.945Z,6.70
2017-09-18T21:13:12.479Z,6.60
2017-09-18T21:15:40.045Z,6.60
2017-09-18T21:18:07.593Z,6.50
2017-09-18T21:20:35.131Z,6.50
2017-09-18T21:23:02.655Z,6.50
2017-09-18T21:25:30.944Z,6.50
2017-09-18T21:27:58.512Z,6.50
2017-09-18T21:30:26.044Z,6.60
2017-09-18T21:32:54.354Z,6.50
2017-09-18T21:35:22.014Z,6.50
2017-09-18T21:37:49.534Z,6.50
2017-09-18T21:40:17.054Z,6.40
2017-09-18T21:42:44.898Z,6.30
2017-09-18T21:45:12.678Z,6.30
2017-09-18T21:47:40.202Z,6.20
2017-09-18T21:50:08.509Z,6.20
2017-09-18T21:52:36.031Z,6.10
2017-09-18T21:55:04.325Z,6.10
2017-09-18T21:57:31.866Z,6.10
2017-09-18T22:00:00.182Z,6.00
2017-09-18T22:02:28.561Z,6.00
2017-09-18T22:04:56.100Z,6.00
2017-09-18T22:07:23.683Z,6.00
2017-09-18T22:09:51.205Z,5.90
2017-09-18T22:12:19.508Z,6.00
2017-09-18T22:14:47.097Z,5.90
2017-09-18T22:17:14.636Z,5.90
2017-09-18T22:19:42.171Z,5.90
2017-09-18T22:22:10.454Z,5.90
2017-09-18T22:24:38.025Z,5.80
2017-09-18T22:27:05.589Z,5.80
2017-09-18T22:29:33.110Z,5.70
2017-09-18T22:32:01.415Z,5.70
2017-09-18T22:34:29.330Z,5.70
2017-09-18T22:36:56.855Z,5.60
2017-09-18T22:39:24.374Z,5.60
2017-09-18T22:41:52.675Z,5.60
2017-09-18T22:44:20.201Z,5.60
2017-09-18T22:46:47.721Z,5.60
2017-09-18T22:49:15.452Z,5.60
2017-09-18T22:51:43.041Z,5.60
2017-09-18T22:54:10.601Z,5.50
2017-09-18T22:56:38.261Z,5.50
2017-09-18T22:59:05.782Z,5.50
2017-09-18T23:01:34.098Z,5.50
2017-09-18T23:04:01.642Z,5.40
2017-09-18T23:06:30.091Z,5.40
2017-09-18T23:08:58.373Z,5.50
2017-09-18T23:11:26.670Z,5.40
2017-09-18T23:13:54.193Z,5.40
2017-09-18T23:16:21.716Z,5.40
2017-09-18T23:18:49.255Z,5.40
2017-09-18T23:21:16.772Z,5.40
2017-09-18T23:23:44.385Z,5.40
2017-09-18T23:26:12.035Z,5.40
2017-09-18T23:28:39.559Z,5.40
2017-09-18T23:31:07.851Z,5.40
2017-09-18T23:33:36.158Z,5.40
2017-09-18T23:36:03.716Z,5.40
2017-09-18T23:38:31.242Z,5.50
2017-09-18T23:40:59.561Z,5.50
2017-09-18T23:43:27.114Z,5.50
2017-09-18T23:45:54.645Z,5.50
2017-09-18T23:48:22.954Z,5.50
2017-09-18T23:50:50.482Z,5.50
2017-09-18T23:53:18.779Z,5.50
2017-09-18T23:55:46.386Z,5.50
2017-09-18T23:58:13.902Z,5.50
